createdAt,value
2022-12-15T00:00:46.496Z,99931.50
2022-12-15T00:03:32.151Z,99925.22
2022-12-15T00:06:19.076Z,99924.53
2022-12-15T00:09:03.879Z,99922.00
2022-12-15T00:11:48.857Z,99925.94
2022-12-15T00:14:33.750Z,99925.81
2022-12-15T00:17:18.790Z,99937.34
2022-12-15T00:20:03.524Z,99936.88
2022-12-15T00:22:48.588Z,99940.56
2022-12-15T00:25:33.507Z,99938.00
2022-12-15T00:28:18.264Z,99949.16
2022-12-15T00:31:03.036Z,99946.09
2022-12-15T00:33:48.298Z,99939.47
2022-12-15T00:36:32.960Z,99946.28
2022-12-15T00:39:03.505Z,99943.88
2022-12-15T00:41:30.288Z,99951.72
2022-12-15T00:43:56.571Z,99961.00
2022-12-15T00:46:41.453Z,99956.59
2022-12-15T00:49:27.800Z,99957.94
2022-12-15T00:52:12.547Z,99964.31
2022-12-15T00:54:57.375Z,99970.56
2022-12-15T00:57:42.359Z,99973.53
2022-12-15T01:00:27.968Z,99967.78
2022-12-15T01:03:12.845Z,99964.66
2022-12-15T01:05:57.793Z,99964.66
2022-12-15T01:08:42.673Z,99961.00
2022-12-15T01:11:27.363Z,99955.00
2022-12-15T01:14:12.609Z,99957.53
2022-12-15T01:16:57.472Z,99949.22
2022-12-15T01:19:42.501Z,99955.81
2022-12-15T01:22:08.793Z,99941.53
2022-12-15T01:24:35.164Z,99939.94
2022-12-15T01:27:01.462Z,99945.00
2022-12-15T01:29:27.758Z,99942.59
2022-12-15T01:31:54.128Z,99933.41
2022-12-15T01:34:22.518Z,99939.13
2022-12-15T01:36:48.871Z,99948.47
2022-12-15T01:39:15.884Z,99954.19
2022-12-15T01:41:42.181Z,99952.47
2022-12-15T01:44:15.962Z,99948.75
2022-12-15T01:46:42.372Z,99939.50
2022-12-15T01:49:23.183Z,99936.31
2022-12-15T01:51:53.712Z,99926.97
2022-12-15T01:54:23.645Z,99923.69
2022-12-15T01:56:54.966Z,99935.69
2022-12-15T01:59:28.037Z,99938.53
2022-12-15T02:01:54.447Z,99949.47
2022-12-15T02:04:22.620Z,99948.88
2022-12-15T02:06:49.199Z,99957.31
2022-12-15T02:09:16.548Z,99974.56
2022-12-15T02:12:05.252Z,99977.59
2022-12-15T02:14:44.504Z,99960.00
2022-12-15T02:17:46.311Z,99966.97
2022-12-15T02:20:46.090Z,99965.19
2022-12-15T02:23:50.083Z,99966.97
2022-12-15T02:26:50.676Z,99966.94
2022-12-15T02:29:28.845Z,99962.78
2022-12-15T02:32:00.783Z,99951.53
2022-12-15T02:34:38.589Z,99935.44
2022-12-15T02:37:26.151Z,99931.13
2022-12-15T02:39:52.540Z,99949.88
2022-12-15T02:42:19.167Z,99973.59
2022-12-15T02:45:17.777Z,99965.94
2022-12-15T02:48:11.592Z,99957.22
2022-12-15T02:51:11.722Z,99965.75
2022-12-15T02:54:17.114Z,99968.22
2022-12-15T02:56:58.404Z,99979.94
2022-12-15T02:59:55.249Z,99981.66
2022-12-15T03:02:25.328Z,99986.72
2022-12-15T03:04:52.318Z,99982.03
2022-12-15T03:07:18.658Z,99977.03
2022-12-15T03:09:45.029Z,99986.22
2022-12-15T03:12:11.413Z,99985.34
2022-12-15T03:14:37.763Z,99981.88
2022-12-15T03:17:07.006Z,99986.22
2022-12-15T03:19:33.741Z,99981.88
2022-12-15T03:22:00.093Z,99982.81
2022-12-15T03:24:26.410Z,99987.22
2022-12-15T03:26:53.233Z,99978.84
2022-12-15T03:29:19.777Z,99984.16
2022-12-15T03:31:46.211Z,99976.19
2022-12-15T03:34:16.909Z,99971.03
2022-12-15T03:36:43.463Z,99983.91
2022-12-15T03:39:09.764Z,99980.44
2022-12-15T03:41:36.128Z,99994.88
2022-12-15T03:44:02.517Z,99990.56
2022-12-15T03:46:28.947Z,99982.03
2022-12-15T03:48:55.372Z,99984.56
2022-12-15T03:51:22.069Z,99980.44
2022-12-15T03:53:49.204Z,99986.22
2022-12-15T03:56:17.093Z,99985.41
2022-12-15T03:58:43.385Z,99990.81
2022-12-15T04:01:28.112Z,99999.22
2022-12-15T04:04:00.517Z,100009.47
2022-12-15T04:06:29.091Z,100003.84
2022-12-15T04:08:55.509Z,100009.47
2022-12-15T04:11:21.868Z,99999.25
2022-12-15T04:13:48.213Z,99994.19
2022-12-15T04:16:19.545Z,99989.25
2022-12-15T04:18:46.749Z,99984.75
2022-12-15T04:21:13.069Z,99992.47
2022-12-15T04:23:39.438Z,99993.38
2022-12-15T04:26:24.384Z,99995.31
2022-12-15T04:29:09.049Z,99982.00
2022-12-15T04:31:54.382Z,99992.91
2022-12-15T04:34:42.547Z,99988.66
2022-12-15T04:37:31.950Z,99990.56
2022-12-15T04:40:18.182Z,99999.88
2022-12-15T04:43:06.216Z,99999.22
2022-12-15T04:45:51.279Z,100000.88
2022-12-15T04:48:36.069Z,100003.59
2022-12-15T04:51:22.733Z,100017.06
2022-12-15T04:54:08.826Z,100015.53
2022-12-15T04:56:53.571Z,100013.72
2022-12-15T04:59:38.490Z,100016.22
2022-12-15T05:02:23.289Z,100015.94
2022-12-15T05:05:08.414Z,100016.00
2022-12-15T05:07:53.452Z,100016.75
2022-12-15T05:10:38.247Z,100017.94
2022-12-15T05:13:26.841Z,100014.19
2022-12-15T05:16:11.966Z,100015.69
2022-12-15T05:18:57.770Z,100028.88
2022-12-15T05:21:42.798Z,100023.13
2022-12-15T05:24:27.490Z,100037.03
2022-12-15T05:27:12.651Z,100029.75
2022-12-15T05:29:57.390Z,100027.50
2022-12-15T05:32:23.749Z,100032.91
2022-12-15T05:34:50.086Z,100034.06
2022-12-15T05:37:16.390Z,100040.78
2022-12-15T05:39:43.392Z,100034.97
2022-12-15T05:42:09.772Z,100041.78
2022-12-15T05:44:36.151Z,100045.81
2022-12-15T05:47:02.517Z,100046.66
2022-12-15T05:49:28.908Z,100054.22
2022-12-15T05:51:55.272Z,100051.69
2022-12-15T05:54:21.603Z,100053.53
2022-12-15T05:56:50.099Z,100052.47
2022-12-15T05:59:17.510Z,100063.31
2022-12-15T06:01:43.855Z,100069.31
2022-12-15T06:04:12.541Z,100072.69
2022-12-15T06:06:39.403Z,100073.56
2022-12-15T06:09:05.745Z,100080.09
2022-12-15T06:11:32.050Z,100085.25
2022-12-15T06:13:58.390Z,100085.03
2022-12-15T06:16:27.815Z,100079.97
2022-12-15T06:18:57.400Z,100087.53
2022-12-15T06:21:29.352Z,100082.38
2022-12-15T06:23:57.074Z,100089.16
2022-12-15T06:26:26.992Z,100084.84
2022-12-15T06:28:56.453Z,100082.25
2022-12-15T06:31:25.226Z,100090.66
2022-12-15T06:33:57.519Z,100093.97
2022-12-15T06:36:28.414Z,100095.72
2022-12-15T06:38:54.704Z,100108.69
2022-12-15T06:41:22.416Z,100110.50
2022-12-15T06:43:50.932Z,100113.03
2022-12-15T06:46:17.725Z,100116.50
2022-12-15T06:48:45.702Z,100109.63
2022-12-15T06:51:17.150Z,100114.91
2022-12-15T06:53:48.593Z,100110.63
2022-12-15T06:56:23.216Z,100122.53
2022-12-15T06:58:52.820Z,100116.50
2022-12-15T07:01:21.582Z,100112.50
2022-12-15T07:03:48.532Z,100116.75
2022-12-15T07:06:16.126Z,100120.22
2022-12-15T07:08:43.583Z,100135.28
2022-12-15T07:11:12.273Z,100126.63
2022-12-15T07:13:39.120Z,100133.25
2022-12-15T07:16:07.528Z,100142.94
2022-12-15T07:18:34.110Z,100144.66
2022-12-15T07:21:05.787Z,100149.25
2022-12-15T07:23:53.133Z,100152.25
2022-12-15T07:26:19.284Z,100172.53
2022-12-15T07:28:45.663Z,100177.44
2022-12-15T07:31:12.171Z,100189.28
2022-12-15T07:33:38.953Z,100199.41
2022-12-15T07:36:08.112Z,100213.84
2022-12-15T07:38:35.358Z,100200.34
2022-12-15T07:41:04.515Z,100209.19
2022-12-15T07:43:31.413Z,100208.09
2022-12-15T07:45:58.606Z,100202.06
2022-12-15T07:48:25.562Z,100204.00
2022-12-15T07:51:02.767Z,100205.13
2022-12-15T07:53:34.977Z,100208.72
2022-12-15T07:56:08.844Z,100214.66
2022-12-15T07:58:36.588Z,100214.88
2022-12-15T08:01:05.964Z,100211.91
2022-12-15T08:03:33.528Z,100212.97
2022-12-15T08:06:05.255Z,100209.13
2022-12-15T08:08:33.271Z,100216.19
2022-12-15T08:11:04.452Z,100217.31
2022-12-15T08:14:01.281Z,100232.03
2022-12-15T08:16:17.155Z,100220.47
2022-12-15T08:18:43.471Z,100220.28
2022-12-15T08:21:10.657Z,100223.97
2022-12-15T08:23:37.695Z,100218.50
2022-12-15T08:26:09.797Z,100226.47
2022-12-15T08:28:37.350Z,100234.25
2022-12-15T08:31:11.840Z,100238.69
2022-12-15T08:33:39.339Z,100240.63
2022-12-15T08:36:09.252Z,100237.47
2022-12-15T08:38:38.419Z,100240.13
2022-12-15T08:41:08.772Z,100244.63
2022-12-15T08:43:35.466Z,100240.91
2022-12-15T08:46:01.874Z,100248.06
2022-12-15T08:48:28.235Z,100248.22
2022-12-15T08:50:59.049Z,100251.97
2022-12-15T08:53:33.583Z,100258.06
2022-12-15T08:56:12.021Z,100253.28
2022-12-15T08:58:39.111Z,100262.03
2022-12-15T09:01:18.901Z,100255.38
2022-12-15T09:03:49.957Z,100263.25
2022-12-15T09:06:19.636Z,100260.91
2022-12-15T09:08:48.452Z,100258.44
2022-12-15T09:11:17.027Z,100244.97
2022-12-15T09:13:43.319Z,100257.19
2022-12-15T09:16:15.580Z,100266.72
2022-12-15T09:18:44.297Z,100261.81
2022-12-15T09:21:12.204Z,100265.41
2022-12-15T09:23:39.308Z,100259.09
2022-12-15T09:26:07.078Z,100266.00
2022-12-15T09:28:33.805Z,100266.06
2022-12-15T09:31:04.678Z,100271.44
2022-12-15T09:33:31.625Z,100264.09
2022-12-15T09:35:58.647Z,100262.38
2022-12-15T09:38:24.926Z,100266.97
2022-12-15T09:40:51.248Z,100264.66
2022-12-15T09:43:44.627Z,100269.97
2022-12-15T09:46:41.921Z,100264.47
2022-12-15T09:49:22.131Z,100268.97
2022-12-15T09:51:55.992Z,100264.06
2022-12-15T09:54:26.648Z,100267.66
2022-12-15T09:56:56.703Z,100271.13
2022-12-15T09:59:35.240Z,100274.78
2022-12-15T10:02:16.813Z,100271.72
2022-12-15T10:04:57.631Z,100266.69
2022-12-15T10:07:36.880Z,100279.81
2022-12-15T10:10:22.406Z,100278.44
2022-12-15T10:13:00.104Z,100273.66
2022-12-15T10:18:46.791Z,100275.66
2022-12-15T10:21:16.813Z,100276.72
2022-12-15T10:23:44.250Z,100278.53
2022-12-15T10:26:23.211Z,100281.81
2022-12-15T10:29:02.806Z,100281.63
2022-12-15T10:31:43.822Z,100281.66
2022-12-15T10:34:24.002Z,100273.91
2022-12-15T10:36:52.378Z,100261.25
2022-12-15T10:39:20.899Z,100265.47
2022-12-15T10:42:39.413Z,100269.81
2022-12-15T10:45:37.320Z,100264.16
2022-12-15T10:48:06.541Z,100259.91
2022-12-15T10:50:34.010Z,100269.41
2022-12-15T10:53:08.192Z,100264.38
2022-12-15T10:55:43.385Z,100268.88
2022-12-15T10:58:21.666Z,100273.16
2022-12-15T11:01:04.471Z,100271.44
2022-12-15T11:03:37.983Z,100268.78
2022-12-15T11:06:15.938Z,100269.72
2022-12-15T11:08:44.003Z,100271.75
2022-12-15T11:11:54.728Z,100281.84
2022-12-15T11:14:24.127Z,100279.38
2022-12-15T11:16:56.450Z,100280.19
2022-12-15T11:19:36.440Z,100274.59
2022-12-15T11:22:16.282Z,100271.34
2022-12-15T11:24:49.657Z,100274.09
2022-12-15T11:27:28.281Z,100269.13
2022-12-15T11:29:55.252Z,100268.97
2022-12-15T11:32:26.051Z,100269.84
2022-12-15T11:34:52.980Z,100275.88
2022-12-15T11:37:36.815Z,100274.31
2022-12-15T11:40:19.207Z,100287.25
2022-12-15T11:43:12.656Z,100287.63
2022-12-15T11:45:56.012Z,100292.81
2022-12-15T11:48:32.019Z,100286.66
2022-12-15T11:51:10.637Z,100285.72
2022-12-15T11:54:11.035Z,100291.50
2022-12-15T11:56:44.792Z,100294.09
2022-12-15T11:59:35.097Z,100291.34
2022-12-15T12:02:32.438Z,100289.63
2022-12-15T12:05:22.709Z,100298.06
2022-12-15T12:07:52.420Z,100294.75
2022-12-15T12:10:26.315Z,100290.56
2022-12-15T12:12:56.194Z,100296.53
2022-12-15T12:15:31.348Z,100289.78
2022-12-15T12:18:11.668Z,100298.44
2022-12-15T12:20:50.249Z,100304.53
2022-12-15T12:23:24.183Z,100304.56
2022-12-15T12:26:17.861Z,100306.38
2022-12-15T12:28:54.363Z,100311.84
2022-12-15T12:32:02.023Z,100316.16
2022-12-15T12:34:38.306Z,100303.72
2022-12-15T12:37:17.724Z,100300.38
2022-12-15T12:39:44.923Z,100300.50
2022-12-15T12:42:30.187Z,100296.34
2022-12-15T12:44:56.598Z,100303.31
2022-12-15T12:47:47.349Z,100297.41
2022-12-15T12:50:22.413Z,100304.00
2022-12-15T12:52:56.011Z,100304.03
2022-12-15T12:55:30.356Z,100295.63
2022-12-15T12:57:57.097Z,100306.69
2022-12-15T13:00:28.685Z,100303.41
2022-12-15T13:02:56.631Z,100301.66
2022-12-15T13:05:35.414Z,100301.78
2022-12-15T13:08:11.293Z,100293.44
2022-12-15T13:10:39.391Z,100289.16
2022-12-15T13:13:36.220Z,100290.09
2022-12-15T13:16:40.084Z,100287.59
2022-12-15T13:19:58.998Z,100303.84
2022-12-15T13:22:32.838Z,100303.03
2022-12-15T13:25:00.531Z,100296.84
2022-12-15T13:27:38.060Z,100303.00
2022-12-15T13:30:10.701Z,100299.69
2022-12-15T13:32:43.677Z,100299.59
2022-12-15T13:35:21.396Z,100301.28
2022-12-15T13:37:50.418Z,100296.22
2022-12-15T13:40:33.202Z,100302.16
2022-12-15T13:43:32.040Z,100298.78
2022-12-15T13:46:11.911Z,100303.25
2022-12-15T13:48:51.386Z,100308.16
2022-12-15T13:51:26.114Z,100306.53
2022-12-15T13:54:04.535Z,100309.19
2022-12-15T13:56:52.762Z,100312.78
2022-12-15T13:59:25.339Z,100314.59
2022-12-15T14:01:53.015Z,100313.78
2022-12-15T14:04:20.623Z,100314.69
2022-12-15T14:07:00.457Z,100309.66
2022-12-15T14:09:33.227Z,100306.19
2022-12-15T14:12:04.528Z,100308.75
2022-12-15T14:14:37.290Z,100302.78
2022-12-15T14:17:08.931Z,100309.56
2022-12-15T14:19:43.182Z,100315.47
2022-12-15T14:22:35.765Z,100312.78
2022-12-15T14:25:13.836Z,100321.50
2022-12-15T14:27:40.343Z,100323.25
2022-12-15T14:30:29.443Z,100326.44
2022-12-15T14:33:01.946Z,100328.25
2022-12-15T14:35:44.410Z,100329.13
2022-12-15T14:38:42.941Z,100319.50
2022-12-15T14:41:18.150Z,100334.88
2022-12-15T14:43:44.764Z,100331.44
2022-12-15T14:46:31.424Z,100334.94
2022-12-15T14:49:01.825Z,100327.19
2022-12-15T14:51:39.827Z,100331.56
2022-12-15T14:54:06.218Z,100334.88
2022-12-15T14:56:32.659Z,100333.97
2022-12-15T14:59:04.835Z,100345.66
2022-12-15T15:01:40.745Z,100337.91
2022-12-15T15:03:11.429Z,100276.69
2022-12-15T15:04:25.162Z,100329.31
2022-12-15T15:07:01.217Z,100335.25
2022-12-15T15:09:39.743Z,100330.97
2022-12-15T15:12:15.535Z,100331.63
2022-12-15T15:14:44.975Z,100338.28
2022-12-15T15:17:14.621Z,100332.28
2022-12-15T15:19:48.201Z,100338.13
2022-12-15T15:22:42.233Z,100337.22
2022-12-15T15:25:36.157Z,100346.66
2022-12-15T15:28:18.179Z,100340.63
2022-12-15T15:30:48.905Z,100343.25
2022-12-15T15:33:16.557Z,100353.22
2022-12-15T15:35:44.718Z,100351.56
2022-12-15T15:38:20.034Z,100351.72
2022-12-15T15:41:21.561Z,100350.66
2022-12-15T15:43:48.168Z,100348.22
2022-12-15T15:46:17.997Z,100355.97
2022-12-15T15:48:49.208Z,100355.25
2022-12-15T15:51:15.684Z,100356.75
2022-12-15T15:53:42.327Z,100359.44
2022-12-15T15:56:14.987Z,100364.63
2022-12-15T15:58:43.652Z,100355.31
2022-12-15T16:01:13.314Z,100363.91
2022-12-15T16:03:40.683Z,100354.66
2022-12-15T16:06:17.526Z,100356.53
2022-12-15T16:08:46.898Z,100356.59
2022-12-15T16:11:13.824Z,100349.97
2022-12-15T16:13:41.677Z,100348.53
2022-12-15T16:16:19.483Z,100350.28
2022-12-15T16:18:46.087Z,100345.00
2022-12-15T16:21:17.829Z,100339.13
2022-12-15T16:23:47.556Z,100340.00
2022-12-15T16:26:16.558Z,100335.88
2022-12-15T16:28:43.104Z,100342.56
2022-12-15T16:31:15.311Z,100346.09
2022-12-15T16:33:41.892Z,100342.66
2022-12-15T16:36:14.702Z,100341.81
2022-12-15T16:38:43.195Z,100340.91
2022-12-15T16:41:15.056Z,100342.53
2022-12-15T16:43:47.619Z,100345.94
2022-12-15T16:46:15.394Z,100362.28
2022-12-15T16:48:42.585Z,100371.72
2022-12-15T16:51:15.829Z,100367.47
2022-12-15T16:53:43.119Z,100368.44
2022-12-15T16:56:13.878Z,100368.28
2022-12-15T16:58:40.185Z,100369.97
2022-12-15T17:01:06.551Z,100376.81
2022-12-15T17:03:33.100Z,100383.69
2022-12-15T17:06:03.879Z,100378.50
2022-12-15T17:08:39.935Z,100386.06
2022-12-15T17:11:06.956Z,100385.16
2022-12-15T17:13:43.555Z,100381.75
2022-12-15T17:16:14.368Z,100392.09
2022-12-15T17:18:42.768Z,100399.03
2022-12-15T17:21:15.714Z,100398.06
2022-12-15T17:23:55.250Z,100404.91
2022-12-15T17:26:29.657Z,100400.66
2022-12-15T17:29:00.171Z,100394.72
2022-12-15T17:31:30.237Z,100394.59
2022-12-15T17:34:02.387Z,100397.22
2022-12-15T17:36:29.189Z,100401.56
2022-12-15T17:39:00.655Z,100406.72
2022-12-15T17:41:57.938Z,100409.28
2022-12-15T17:44:39.142Z,100401.44
2022-12-15T17:47:08.071Z,100403.94
2022-12-15T17:49:37.251Z,100407.16
2022-12-15T17:52:15.172Z,100412.97
2022-12-15T17:54:41.495Z,100426.63
2022-12-15T17:57:11.081Z,100424.88
2022-12-15T17:59:37.414Z,100426.44
2022-12-15T18:02:03.853Z,100429.00
2022-12-15T18:04:31.210Z,100431.50
2022-12-15T18:07:01.604Z,100434.13
2022-12-15T18:09:29.455Z,100432.44
2022-12-15T18:11:56.147Z,100427.31
2022-12-15T18:14:22.764Z,100433.31
2022-12-15T18:16:49.181Z,100436.81
2022-12-15T18:19:15.496Z,100444.38
2022-12-15T18:21:42.122Z,100444.38
2022-12-15T18:24:13.500Z,100453.75
2022-12-15T18:26:39.843Z,100448.56
2022-12-15T18:29:14.687Z,100450.06
2022-12-15T18:31:42.090Z,100453.47
2022-12-15T18:34:14.848Z,100450.97
2022-12-15T18:36:41.266Z,100460.38
2022-12-15T18:39:26.135Z,100459.56
2022-12-15T18:41:56.399Z,100466.41
2022-12-15T18:44:27.895Z,100464.69
2022-12-15T18:46:55.204Z,100473.22
2022-12-15T18:49:22.815Z,100462.13
2022-12-15T18:51:49.526Z,100471.50
2022-12-15T18:54:21.550Z,100470.66
2022-12-15T18:56:48.356Z,100474.03
2022-12-15T18:59:16.947Z,100479.97
2022-12-15T19:01:45.498Z,100478.13
2022-12-15T19:04:12.384Z,100484.03
2022-12-15T19:06:40.246Z,100486.59
2022-12-15T19:09:18.891Z,100481.41
2022-12-15T19:12:08.047Z,100489.09
2022-12-15T19:14:40.659Z,100487.22
2022-12-15T19:17:29.154Z,100488.94
2022-12-15T19:20:14.001Z,100498.28
2022-12-15T19:22:40.840Z,100499.94
2022-12-15T19:25:09.936Z,100498.22
2022-12-15T19:27:36.211Z,100510.00
2022-12-15T19:30:13.362Z,100524.59
2022-12-15T19:32:39.679Z,100525.47
2022-12-15T19:35:06.192Z,100521.22
2022-12-15T19:37:34.622Z,100522.88
2022-12-15T19:40:01.905Z,100524.38
2022-12-15T19:42:35.257Z,100523.69
2022-12-15T19:45:13.549Z,100527.91
2022-12-15T19:47:40.043Z,100529.53
2022-12-15T19:50:06.852Z,100526.16
2022-12-15T19:52:34.405Z,100533.84
2022-12-15T19:55:01.098Z,100536.31
2022-12-15T19:57:27.386Z,100541.69
2022-12-15T19:59:53.661Z,100542.56
2022-12-15T20:02:21.381Z,100548.38
2022-12-15T20:04:48.083Z,100551.78
2022-12-15T20:07:18.610Z,100553.75
2022-12-15T20:09:45.015Z,100550.41
2022-12-15T20:12:18.025Z,100545.66
2022-12-15T20:14:45.173Z,100556.75
2022-12-15T20:17:11.884Z,100553.41
2022-12-15T20:19:38.182Z,100556.75
2022-12-15T20:22:04.876Z,100563.47
2022-12-15T20:24:32.718Z,100571.09
2022-12-15T20:26:59.547Z,100567.69
2022-12-15T20:29:30.000Z,100577.88
2022-12-15T20:31:57.788Z,100584.63
2022-12-15T20:34:25.398Z,100593.13
2022-12-15T20:36:51.802Z,100593.16
2022-12-15T20:39:29.168Z,100596.13
2022-12-15T20:41:56.648Z,100598.94
2022-12-15T20:44:23.852Z,100601.59
2022-12-15T20:46:50.299Z,100598.19
2022-12-15T20:49:18.687Z,100602.47
2022-12-15T20:51:46.874Z,100601.53
2022-12-15T20:54:20.465Z,100597.25
2022-12-15T20:56:47.792Z,100593.75
2022-12-15T20:59:15.816Z,100592.78
2022-12-15T21:01:44.389Z,100599.75
2022-12-15T21:04:21.402Z,100598.19
2022-12-15T21:06:52.930Z,100600.59
2022-12-15T21:09:21.577Z,100601.28
2022-12-15T21:11:48.474Z,100601.06
2022-12-15T21:14:23.366Z,100598.31
2022-12-15T21:16:50.430Z,100604.94
2022-12-15T21:19:21.768Z,100612.69
2022-12-15T21:21:51.645Z,100615.06
2022-12-15T21:24:22.677Z,100620.19
2022-12-15T21:26:49.822Z,100613.31
2022-12-15T21:29:19.792Z,100620.44
2022-12-15T21:31:46.289Z,100616.78
2022-12-15T21:34:13.185Z,100612.50
2022-12-15T21:36:42.550Z,100603.50
2022-12-15T21:39:15.381Z,100606.81
2022-12-15T21:41:42.963Z,100616.25
2022-12-15T21:44:15.754Z,100621.22
2022-12-15T21:46:42.288Z,100614.41
2022-12-15T21:49:20.346Z,100611.84
2022-12-15T21:51:52.000Z,100615.91
2022-12-15T21:54:34.579Z,100611.59
2022-12-15T21:57:02.453Z,100617.53
2022-12-15T21:59:31.147Z,100614.09
2022-12-15T22:01:59.210Z,100614.13
2022-12-15T22:04:30.126Z,100612.50
2022-12-15T22:06:56.485Z,100614.22
2022-12-15T22:09:22.858Z,100613.75
2022-12-15T22:11:53.523Z,100609.25
2022-12-15T22:14:24.155Z,100616.59
2022-12-15T22:16:51.087Z,100610.38
2022-12-15T22:19:17.404Z,100610.56
2022-12-15T22:21:43.779Z,100608.97
2022-12-15T22:24:10.539Z,100613.97
2022-12-15T22:26:38.057Z,100619.53
2022-12-15T22:29:13.695Z,100616.50
2022-12-15T22:31:39.967Z,100629.00
2022-12-15T22:34:13.533Z,100627.13
2022-12-15T22:36:40.050Z,100632.94
2022-12-15T22:39:10.697Z,100630.53
2022-12-15T22:41:45.534Z,100630.47
2022-12-15T22:44:23.555Z,100628.59
2022-12-15T22:46:51.967Z,100630.16
2022-12-15T22:49:21.309Z,100629.31
2022-12-15T22:51:47.714Z,100632.59
2022-12-15T22:54:19.342Z,100645.28
2022-12-15T22:56:52.068Z,100640.72
2022-12-15T22:59:28.910Z,100642.53
2022-12-15T23:01:55.530Z,100645.56
2022-12-15T23:04:22.513Z,100641.88
2022-12-15T23:06:48.871Z,100644.84
2022-12-15T23:09:15.196Z,100648.25
2022-12-15T23:11:41.813Z,100646.09
2022-12-15T23:14:11.025Z,100648.53
2022-12-15T23:16:37.828Z,100653.44
2022-12-15T23:19:04.788Z,100655.81
2022-12-15T23:21:31.682Z,100656.78
2022-12-15T23:23:58.269Z,100661.00
2022-12-15T23:26:25.857Z,100663.84
2022-12-15T23:28:55.429Z,100656.84
2022-12-15T23:31:22.175Z,100662.28
2022-12-15T23:33:49.734Z,100671.75
2022-12-15T23:36:18.327Z,100673.63
2022-12-15T23:38:44.666Z,100680.88
2022-12-15T23:41:15.837Z,100681.41
2022-12-15T23:43:42.460Z,100671.28
2022-12-15T23:46:09.278Z,100687.13
2022-12-15T23:48:38.445Z,100685.97
2022-12-15T23:51:06.211Z,100695.66
2022-12-15T23:53:33.434Z,100697.78
2022-12-15T23:56:11.593Z,100694.56
2022-12-15T23:58:39.687Z,100688.56
